sensor_id;sensor_type;location;lat;lon;timestamp;P1;durP1;ratioP1;P2;durP2;ratioP2
35592;SDS011;64447;52.140;5.602;2023-02-02T00:00:13;17.85;;;5.60;;
35592;SDS011;64447;52.140;5.602;2023-02-02T00:02:39;16.98;;;5.53;;
35592;SDS011;64447;52.140;5.602;2023-02-02T00:05:05;25.98;;;6.10;;
35592;SDS011;64447;52.140;5.602;2023-02-02T00:07:31;17.20;;;4.38;;
35592;SDS011;64447;52.140;5.602;2023-02-02T00:09:56;18.48;;;5.70;;
35592;SDS011;64447;52.140;5.602;2023-02-02T00:12:22;20.75;;;4.85;;
35592;SDS011;64447;52.140;5.602;2023-02-02T00:14:48;16.33;;;4.55;;
35592;SDS011;64447;52.140;5.602;2023-02-02T00:17:13;36.17;;;6.45;;
35592;SDS011;64447;52.140;5.602;2023-02-02T00:23:01;14.02;;;4.78;;
35592;SDS011;64447;52.140;5.602;2023-02-02T00:25:28;15.88;;;4.50;;
35592;SDS011;64447;52.140;5.602;2023-02-02T00:27:54;18.83;;;5.03;;
35592;SDS011;64447;52.140;5.602;2023-02-02T00:30:20;19.00;;;4.80;;
35592;SDS011;64447;52.140;5.602;2023-02-02T00:32:45;14.75;;;3.92;;
35592;SDS011;64447;52.140;5.602;2023-02-02T00:35:12;17.15;;;4.40;;
35592;SDS011;64447;52.140;5.602;2023-02-02T00:37:39;14.68;;;4.32;;
35592;SDS011;64447;52.140;5.602;2023-02-02T00:40:05;15.13;;;3.88;;
35592;SDS011;64447;52.140;5.602;2023-02-02T00:42:32;13.75;;;3.55;;
35592;SDS011;64447;52.140;5.602;2023-02-02T00:44:58;17.35;;;4.97;;
35592;SDS011;64447;52.140;5.602;2023-02-02T00:47:48;18.75;;;3.97;;
35592;SDS011;64447;52.140;5.602;2023-02-02T00:50:14;19.20;;;4.45;;
35592;SDS011;64447;52.140;5.602;2023-02-02T00:52:43;13.48;;;3.58;;
35592;SDS011;64447;52.140;5.602;2023-02-02T00:55:09;21.85;;;4.63;;
35592;SDS011;64447;52.140;5.602;2023-02-02T00:57:36;18.67;;;4.75;;
35592;SDS011;64447;52.140;5.602;2023-02-02T01:00:02;17.70;;;4.63;;
35592;SDS011;64447;52.140;5.602;2023-02-02T01:02:31;17.55;;;4.85;;
35592;SDS011;64447;52.140;5.602;2023-02-02T01:08:19;17.60;;;5.40;;
35592;SDS011;64447;52.140;5.602;2023-02-02T01:10:45;17.20;;;4.82;;
35592;SDS011;64447;52.140;5.602;2023-02-02T01:13:10;15.13;;;4.15;;
35592;SDS011;64447;52.140;5.602;2023-02-02T01:15:36;19.45;;;5.30;;
35592;SDS011;64447;52.140;5.602;2023-02-02T01:18:02;17.20;;;4.30;;
35592;SDS011;64447;52.140;5.602;2023-02-02T01:20:27;20.05;;;5.10;;
35592;SDS011;64447;52.140;5.602;2023-02-02T01:22:53;18.25;;;4.90;;
35592;SDS011;64447;52.140;5.602;2023-02-02T01:25:18;19.75;;;4.57;;
35592;SDS011;64447;52.140;5.602;2023-02-02T01:27:44;12.65;;;4.32;;
35592;SDS011;64447;52.140;5.602;2023-02-02T01:30:10;16.00;;;4.97;;
35592;SDS011;64447;52.140;5.602;2023-02-02T01:32:36;19.80;;;4.70;;
35592;SDS011;64447;52.140;5.602;2023-02-02T01:38:23;18.73;;;5.10;;
35592;SDS011;64447;52.140;5.602;2023-02-02T01:40:50;19.23;;;4.18;;
35592;SDS011;64447;52.140;5.602;2023-02-02T01:45:51;16.85;;;4.82;;
35592;SDS011;64447;52.140;5.602;2023-02-02T01:48:26;19.35;;;4.28;;
35592;SDS011;64447;52.140;5.602;2023-02-02T01:50:57;15.32;;;4.55;;
35592;SDS011;64447;52.140;5.602;2023-02-02T01:53:27;18.00;;;4.47;;
35592;SDS011;64447;52.140;5.602;2023-02-02T01:55:53;10.15;;;3.03;;
35592;SDS011;64447;52.140;5.602;2023-02-02T01:58:21;8.90;;;2.30;;
35592;SDS011;64447;52.140;5.602;2023-02-02T02:00:49;6.00;;;2.15;;
35592;SDS011;64447;52.140;5.602;2023-02-02T02:03:18;8.25;;;2.60;;
35592;SDS011;64447;52.140;5.602;2023-02-02T02:05:47;11.32;;;2.05;;
35592;SDS011;64447;52.140;5.602;2023-02-02T02:08:27;7.68;;;2.00;;
35592;SDS011;64447;52.140;5.602;2023-02-02T02:11:11;9.13;;;2.25;;
35592;SDS011;64447;52.140;5.602;2023-02-02T02:13:36;5.53;;;1.65;;
35592;SDS011;64447;52.140;5.602;2023-02-02T02:16:29;4.22;;;1.55;;
35592;SDS011;64447;52.140;5.602;2023-02-02T02:21:59;9.10;;;1.95;;
35592;SDS011;64447;52.140;5.602;2023-02-02T02:37:09;7.57;;;2.63;;
35592;SDS011;64447;52.140;5.602;2023-02-02T02:39:48;7.30;;;2.65;;
35592;SDS011;64447;52.140;5.602;2023-02-02T02:42:29;7.35;;;3.33;;
35592;SDS011;64447;52.140;5.602;2023-02-02T02:44:58;11.27;;;4.13;;
35592;SDS011;64447;52.140;5.602;2023-02-02T02:47:26;9.55;;;3.50;;
35592;SDS011;64447;52.140;5.602;2023-02-02T02:53:19;9.27;;;3.65;;
35592;SDS011;64447;52.140;5.602;2023-02-02T02:55:53;11.85;;;4.18;;
35592;SDS011;64447;52.140;5.602;2023-02-02T03:01:13;13.70;;;4.70;;
35592;SDS011;64447;52.140;5.602;2023-02-02T03:08:57;13.40;;;5.53;;
35592;SDS011;64447;52.140;5.602;2023-02-02T03:11:33;15.82;;;5.70;;
35592;SDS011;64447;52.140;5.602;2023-02-02T03:14:00;17.15;;;5.22;;
35592;SDS011;64447;52.140;5.602;2023-02-02T03:16:26;11.57;;;4.70;;
35592;SDS011;64447;52.140;5.602;2023-02-02T03:18:52;18.30;;;5.88;;
35592;SDS011;64447;52.140;5.602;2023-02-02T03:21:19;16.85;;;4.85;;
35592;SDS011;64447;52.140;5.602;2023-02-02T03:23:45;15.82;;;4.95;;
35592;SDS011;64447;52.140;5.602;2023-02-02T03:26:11;22.80;;;5.18;;
35592;SDS011;64447;52.140;5.602;2023-02-02T03:28:37;21.17;;;5.80;;
35592;SDS011;64447;52.140;5.602;2023-02-02T03:31:02;22.25;;;5.30;;
35592;SDS011;64447;52.140;5.602;2023-02-02T03:33:29;17.80;;;5.50;;
35592;SDS011;64447;52.140;5.602;2023-02-02T03:35:57;17.88;;;5.22;;
35592;SDS011;64447;52.140;5.602;2023-02-02T03:38:22;20.13;;;5.85;;
35592;SDS011;64447;52.140;5.602;2023-02-02T03:40:49;19.52;;;4.80;;
35592;SDS011;64447;52.140;5.602;2023-02-02T03:43:18;19.85;;;5.47;;
35592;SDS011;64447;52.140;5.602;2023-02-02T03:45:45;17.02;;;4.47;;
35592;SDS011;64447;52.140;5.602;2023-02-02T03:48:11;25.92;;;5.97;;
35592;SDS011;64447;52.140;5.602;2023-02-02T03:53:58;20.23;;;5.32;;
35592;SDS011;64447;52.140;5.602;2023-02-02T03:56:24;22.23;;;5.43;;
35592;SDS011;64447;52.140;5.602;2023-02-02T03:58:49;19.92;;;5.28;;
35592;SDS011;64447;52.140;5.602;2023-02-02T04:01:15;18.60;;;5.32;;
35592;SDS011;64447;52.140;5.602;2023-02-02T04:03:41;14.30;;;5.18;;
35592;SDS011;64447;52.140;5.602;2023-02-02T04:06:07;25.70;;;5.82;;
35592;SDS011;64447;52.140;5.602;2023-02-02T04:08:32;20.75;;;5.20;;
35592;SDS011;64447;52.140;5.602;2023-02-02T04:10:58;21.80;;;5.18;;
35592;SDS011;64447;52.140;5.602;2023-02-02T04:13:24;14.23;;;4.60;;
35592;SDS011;64447;52.140;5.602;2023-02-02T04:15:56;24.70;;;5.68;;
35592;SDS011;64447;52.140;5.602;2023-02-02T04:18:23;19.23;;;4.95;;
35592;SDS011;64447;52.140;5.602;2023-02-02T04:24:11;20.05;;;4.72;;
35592;SDS011;64447;52.140;5.602;2023-02-02T04:26:38;18.20;;;4.78;;
35592;SDS011;64447;52.140;5.602;2023-02-02T04:29:03;20.23;;;4.85;;
35592;SDS011;64447;52.140;5.602;2023-02-02T04:31:29;21.35;;;5.07;;
35592;SDS011;64447;52.140;5.602;2023-02-02T04:33:56;23.67;;;5.07;;
35592;SDS011;64447;52.140;5.602;2023-02-02T04:36:22;15.15;;;4.82;;
35592;SDS011;64447;52.140;5.602;2023-02-02T04:38:48;19.80;;;4.78;;
35592;SDS011;64447;52.140;5.602;2023-02-02T04:41:15;16.63;;;4.38;;
35592;SDS011;64447;52.140;5.602;2023-02-02T04:43:42;18.35;;;5.40;;
35592;SDS011;64447;52.140;5.602;2023-02-02T04:46:08;15.27;;;4.63;;
35592;SDS011;64447;52.140;5.602;2023-02-02T04:48:34;20.77;;;4.72;;
35592;SDS011;64447;52.140;5.602;2023-02-02T04:54:22;18.23;;;4.97;;
35592;SDS011;64447;52.140;5.602;2023-02-02T04:56:48;17.48;;;4.68;;
35592;SDS011;64447;52.140;5.602;2023-02-02T04:59:14;17.10;;;4.40;;
35592;SDS011;64447;52.140;5.602;2023-02-02T05:01:39;13.70;;;4.82;;
35592;SDS011;64447;52.140;5.602;2023-02-02T05:04:05;18.40;;;4.50;;
35592;SDS011;64447;52.140;5.602;2023-02-02T05:06:30;24.35;;;5.28;;
35592;SDS011;64447;52.140;5.602;2023-02-02T05:08:56;13.25;;;4.28;;
35592;SDS011;64447;52.140;5.602;2023-02-02T05:11:22;20.60;;;4.60;;
35592;SDS011;64447;52.140;5.602;2023-02-02T05:13:48;17.55;;;4.68;;
35592;SDS011;64447;52.140;5.602;2023-02-02T05:16:16;19.52;;;5.00;;
35592;SDS011;64447;52.140;5.602;2023-02-02T05:18:42;18.27;;;4.65;;
35592;SDS011;64447;52.140;5.602;2023-02-02T05:25:07;23.42;;;5.47;;
35592;SDS011;64447;52.140;5.602;2023-02-02T05:27:33;16.80;;;5.05;;
35592;SDS011;64447;52.140;5.602;2023-02-02T05:29:59;14.52;;;4.63;;
35592;SDS011;64447;52.140;5.602;2023-02-02T05:32:25;16.73;;;4.32;;
35592;SDS011;64447;52.140;5.602;2023-02-02T05:34:52;20.48;;;5.10;;
35592;SDS011;64447;52.140;5.602;2023-02-02T05:37:18;16.83;;;4.97;;
35592;SDS011;64447;52.140;5.602;2023-02-02T05:39:43;22.92;;;5.07;;
35592;SDS011;64447;52.140;5.602;2023-02-02T05:42:09;17.42;;;4.88;;
35592;SDS011;64447;52.140;5.602;2023-02-02T05:44:35;17.70;;;5.65;;
35592;SDS011;64447;52.140;5.602;2023-02-02T05:47:00;16.50;;;5.45;;
35592;SDS011;64447;52.140;5.602;2023-02-02T05:49:26;17.50;;;5.30;;
35592;SDS011;64447;52.140;5.602;2023-02-02T05:51:52;21.83;;;6.22;;
35592;SDS011;64447;52.140;5.602;2023-02-02T05:54:20;19.75;;;5.00;;
35592;SDS011;64447;52.140;5.602;2023-02-02T05:56:47;17.33;;;5.70;;
35592;SDS011;64447;52.140;5.602;2023-02-02T05:59:13;16.70;;;5.38;;
35592;SDS011;64447;52.140;5.602;2023-02-02T06:01:39;20.63;;;5.18;;
35592;SDS011;64447;52.140;5.602;2023-02-02T06:04:04;20.95;;;6.05;;
35592;SDS011;64447;52.140;5.602;2023-02-02T06:06:30;19.45;;;5.03;;
35592;SDS011;64447;52.140;5.602;2023-02-02T06:08:56;14.70;;;4.90;;
35592;SDS011;64447;52.140;5.602;2023-02-02T06:11:21;27.75;;;5.70;;
35592;SDS011;64447;52.140;5.602;2023-02-02T06:13:47;18.52;;;6.00;;
35592;SDS011;64447;52.140;5.602;2023-02-02T06:16:12;21.75;;;6.07;;
35592;SDS011;64447;52.140;5.602;2023-02-02T06:18:38;17.33;;;5.32;;
35592;SDS011;64447;52.140;5.602;2023-02-02T06:24:26;20.58;;;6.38;;
35592;SDS011;64447;52.140;5.602;2023-02-02T06:26:51;14.88;;;5.35;;
35592;SDS011;64447;52.140;5.602;2023-02-02T06:29:17;18.08;;;4.97;;
35592;SDS011;64447;52.140;5.602;2023-02-02T06:31:42;18.88;;;5.05;;
35592;SDS011;64447;52.140;5.602;2023-02-02T06:34:09;17.33;;;5.03;;
35592;SDS011;64447;52.140;5.602;2023-02-02T06:36:38;14.02;;;4.60;;
35592;SDS011;64447;52.140;5.602;2023-02-02T06:39:05;19.90;;;6.00;;
35592;SDS011;64447;52.140;5.602;2023-02-02T06:41:32;14.18;;;4.90;;
35592;SDS011;64447;52.140;5.602;2023-02-02T06:43:58;15.95;;;4.85;;
35592;SDS011;64447;52.140;5.602;2023-02-02T06:46:24;21.02;;;5.85;;
35592;SDS011;64447;52.140;5.602;2023-02-02T06:48:49;26.27;;;5.72;;
35592;SDS011;64447;52.140;5.602;2023-02-02T06:54:37;20.98;;;5.28;;
35592;SDS011;64447;52.140;5.602;2023-02-02T06:57:02;15.63;;;5.22;;
35592;SDS011;64447;52.140;5.602;2023-02-02T06:59:28;20.35;;;5.05;;
35592;SDS011;64447;52.140;5.602;2023-02-02T07:01:53;21.05;;;5.20;;
35592;SDS011;64447;52.140;5.602;2023-02-02T07:04:19;17.98;;;4.90;;
35592;SDS011;64447;52.140;5.602;2023-02-02T07:06:45;24.20;;;5.70;;
35592;SDS011;64447;52.140;5.602;2023-02-02T07:09:11;19.13;;;5.18;;
35592;SDS011;64447;52.140;5.602;2023-02-02T07:11:36;11.20;;;5.28;;
35592;SDS011;64447;52.140;5.602;2023-02-02T07:14:02;18.63;;;5.47;;
35592;SDS011;64447;52.140;5.602;2023-02-02T07:16:28;18.70;;;6.72;;
35592;SDS011;64447;52.140;5.602;2023-02-02T07:18:54;19.42;;;5.90;;
35592;SDS011;64447;52.140;5.602;2023-02-02T07:24:42;17.92;;;6.15;;
35592;SDS011;64447;52.140;5.602;2023-02-02T07:27:08;23.50;;;6.57;;
35592;SDS011;64447;52.140;5.602;2023-02-02T07:29:33;29.20;;;7.20;;
35592;SDS011;64447;52.140;5.602;2023-02-02T07:31:59;23.52;;;6.70;;
35592;SDS011;64447;52.140;5.602;2023-02-02T07:34:24;23.08;;;7.03;;
35592;SDS011;64447;52.140;5.602;2023-02-02T07:36:50;14.80;;;5.68;;
35592;SDS011;64447;52.140;5.602;2023-02-02T07:39:16;14.40;;;6.32;;
35592;SDS011;64447;52.140;5.602;2023-02-02T07:41:41;16.38;;;6.45;;
35592;SDS011;64447;52.140;5.602;2023-02-02T07:44:11;27.10;;;6.80;;
35592;SDS011;64447;52.140;5.602;2023-02-02T07:46:41;19.73;;;6.45;;
35592;SDS011;64447;52.140;5.602;2023-02-02T07:49:10;18.33;;;6.82;;
35592;SDS011;64447;52.140;5.602;2023-02-02T07:54:59;25.48;;;6.78;;
35592;SDS011;64447;52.140;5.602;2023-02-02T07:57:25;17.98;;;6.43;;
35592;SDS011;64447;52.140;5.602;2023-02-02T07:59:50;18.52;;;6.18;;
35592;SDS011;64447;52.140;5.602;2023-02-02T08:02:18;19.00;;;7.20;;
35592;SDS011;64447;52.140;5.602;2023-02-02T08:04:44;14.70;;;6.38;;
35592;SDS011;64447;52.140;5.602;2023-02-02T08:07:11;20.58;;;6.25;;
35592;SDS011;64447;52.140;5.602;2023-02-02T08:09:36;21.98;;;5.43;;
35592;SDS011;64447;52.140;5.602;2023-02-02T08:12:02;26.83;;;7.15;;
35592;SDS011;64447;52.140;5.602;2023-02-02T08:14:28;18.90;;;6.18;;
35592;SDS011;64447;52.140;5.602;2023-02-02T08:16:53;22.90;;;5.68;;
35592;SDS011;64447;52.140;5.602;2023-02-02T08:19:19;15.00;;;5.80;;
35592;SDS011;64447;52.140;5.602;2023-02-02T08:25:07;17.10;;;4.90;;
35592;SDS011;64447;52.140;5.602;2023-02-02T08:27:33;18.67;;;5.60;;
35592;SDS011;64447;52.140;5.602;2023-02-02T08:29:58;12.75;;;5.05;;
35592;SDS011;64447;52.140;5.602;2023-02-02T08:32:24;20.73;;;5.47;;
35592;SDS011;64447;52.140;5.602;2023-02-02T08:34:49;17.55;;;5.00;;
35592;SDS011;64447;52.140;5.602;2023-02-02T08:37:18;19.00;;;5.13;;
35592;SDS011;64447;52.140;5.602;2023-02-02T08:39:44;24.58;;;6.47;;
35592;SDS011;64447;52.140;5.602;2023-02-02T08:42:10;20.80;;;4.15;;
35592;SDS011;64447;52.140;5.602;2023-02-02T08:44:35;18.80;;;6.13;;
35592;SDS011;64447;52.140;5.602;2023-02-02T08:47:01;16.30;;;5.18;;
35592;SDS011;64447;52.140;5.602;2023-02-02T08:49:26;19.55;;;5.28;;
35592;SDS011;64447;52.140;5.602;2023-02-02T08:55:14;15.20;;;5.07;;
35592;SDS011;64447;52.140;5.602;2023-02-02T08:57:40;22.02;;;6.88;;
35592;SDS011;64447;52.140;5.602;2023-02-02T09:00:05;15.27;;;4.95;;
35592;SDS011;64447;52.140;5.602;2023-02-02T09:02:31;15.38;;;4.80;;
35592;SDS011;64447;52.140;5.602;2023-02-02T09:04:57;10.10;;;4.65;;
35592;SDS011;64447;52.140;5.602;2023-02-02T09:07:23;20.15;;;4.97;;
35592;SDS011;64447;52.140;5.602;2023-02-02T09:09:48;16.27;;;4.72;;
35592;SDS011;64447;52.140;5.602;2023-02-02T09:12:16;14.85;;;4.65;;
35592;SDS011;64447;52.140;5.602;2023-02-02T09:14:42;24.45;;;5.10;;
35592;SDS011;64447;52.140;5.602;2023-02-02T09:17:07;19.08;;;5.03;;
35592;SDS011;64447;52.140;5.602;2023-02-02T09:19:33;18.10;;;4.55;;
35592;SDS011;64447;52.140;5.602;2023-02-02T09:25:20;15.88;;;5.00;;
35592;SDS011;64447;52.140;5.602;2023-02-02T09:27:46;18.90;;;4.95;;
35592;SDS011;64447;52.140;5.602;2023-02-02T09:30:11;17.73;;;4.65;;
35592;SDS011;64447;52.140;5.602;2023-02-02T09:32:37;13.43;;;4.25;;
35592;SDS011;64447;52.140;5.602;2023-02-02T09:35:03;16.38;;;5.50;;
35592;SDS011;64447;52.140;5.602;2023-02-02T09:37:29;20.27;;;4.97;;
35592;SDS011;64447;52.140;5.602;2023-02-02T09:39:57;24.85;;;5.22;;
35592;SDS011;64447;52.140;5.602;2023-02-02T09:50:44;16.23;;;4.72;;
35592;SDS011;64447;52.140;5.602;2023-02-02T09:53:35;22.60;;;5.53;;
35592;SDS011;64447;52.140;5.602;2023-02-02T09:56:26;11.35;;;4.88;;
35592;SDS011;64447;52.140;5.602;2023-02-02T09:59:05;15.93;;;5.32;;
35592;SDS011;64447;52.140;5.602;2023-02-02T10:01:40;16.30;;;4.95;;
35592;SDS011;64447;52.140;5.602;2023-02-02T10:04:42;18.27;;;4.80;;
35592;SDS011;64447;52.140;5.602;2023-02-02T10:07:06;19.52;;;4.95;;
35592;SDS011;64447;52.140;5.602;2023-02-02T10:09:47;17.88;;;5.78;;
35592;SDS011;64447;52.140;5.602;2023-02-02T10:12:34;18.48;;;4.72;;
35592;SDS011;64447;52.140;5.602;2023-02-02T10:40:20;17.02;;;5.28;;
35592;SDS011;64447;52.140;5.602;2023-02-02T10:45:57;15.63;;;5.25;;
35592;SDS011;64447;52.140;5.602;2023-02-02T10:48:27;16.30;;;5.03;;
35592;SDS011;64447;52.140;5.602;2023-02-02T10:54:28;14.00;;;4.97;;
35592;SDS011;64447;52.140;5.602;2023-02-02T10:56:56;17.08;;;5.63;;
35592;SDS011;64447;52.140;5.602;2023-02-02T10:59:26;16.33;;;6.60;;
35592;SDS011;64447;52.140;5.602;2023-02-02T11:01:56;14.23;;;5.05;;
35592;SDS011;64447;52.140;5.602;2023-02-02T11:04:22;16.65;;;5.40;;
35592;SDS011;64447;52.140;5.602;2023-02-02T11:10:29;15.05;;;5.40;;
35592;SDS011;64447;52.140;5.602;2023-02-02T11:12:56;13.95;;;5.30;;
35592;SDS011;64447;52.140;5.602;2023-02-02T11:17:51;9.95;;;4.43;;
35592;SDS011;64447;52.140;5.602;2023-02-02T11:20:24;15.20;;;4.97;;
35592;SDS011;64447;52.140;5.602;2023-02-02T11:23:03;13.10;;;4.32;;
35592;SDS011;64447;52.140;5.602;2023-02-02T11:25:37;13.70;;;4.63;;
35592;SDS011;64447;52.140;5.602;2023-02-02T11:28:10;19.15;;;5.55;;
35592;SDS011;64447;52.140;5.602;2023-02-02T11:30:44;19.38;;;5.05;;
35592;SDS011;64447;52.140;5.602;2023-02-02T11:33:26;16.35;;;4.80;;
35592;SDS011;64447;52.140;5.602;2023-02-02T11:35:55;15.32;;;4.82;;
35592;SDS011;64447;52.140;5.602;2023-02-02T11:38:41;16.83;;;5.32;;
35592;SDS011;64447;52.140;5.602;2023-02-02T11:41:08;15.77;;;5.43;;
35592;SDS011;64447;52.140;5.602;2023-02-02T11:43:47;22.38;;;5.35;;
35592;SDS011;64447;52.140;5.602;2023-02-02T11:48:50;15.30;;;4.43;;
35592;SDS011;64447;52.140;5.602;2023-02-02T11:51:32;13.43;;;4.32;;
35592;SDS011;64447;52.140;5.602;2023-02-02T11:54:14;14.80;;;4.18;;
35592;SDS011;64447;52.140;5.602;2023-02-02T11:56:46;17.27;;;4.22;;
35592;SDS011;64447;52.140;5.602;2023-02-02T11:59:34;12.52;;;3.55;;
35592;SDS011;64447;52.140;5.602;2023-02-02T12:05:11;18.95;;;4.18;;
35592;SDS011;64447;52.140;5.602;2023-02-02T12:08:15;15.88;;;4.38;;
35592;SDS011;64447;52.140;5.602;2023-02-02T12:10:43;11.90;;;4.18;;
35592;SDS011;64447;52.140;5.602;2023-02-02T12:19:07;12.95;;;3.95;;
35592;SDS011;64447;52.140;5.602;2023-02-02T12:30:42;16.52;;;4.75;;
35592;SDS011;64447;52.140;5.602;2023-02-02T12:33:21;13.05;;;3.88;;
35592;SDS011;64447;52.140;5.602;2023-02-02T12:51:19;13.48;;;4.00;;
35592;SDS011;64447;52.140;5.602;2023-02-02T13:08:46;11.52;;;3.38;;
35592;SDS011;64447;52.140;5.602;2023-02-02T13:11:37;13.15;;;4.05;;
35592;SDS011;64447;52.140;5.602;2023-02-02T13:14:16;16.50;;;3.83;;
35592;SDS011;64447;52.140;5.602;2023-02-02T13:16:54;11.55;;;3.55;;
35592;SDS011;64447;52.140;5.602;2023-02-02T13:19:28;10.25;;;4.63;;
35592;SDS011;64447;52.140;5.602;2023-02-02T13:25:27;13.43;;;5.07;;
35592;SDS011;64447;52.140;5.602;2023-02-02T13:27:59;12.25;;;4.97;;
35592;SDS011;64447;52.140;5.602;2023-02-02T13:30:29;19.60;;;5.93;;
35592;SDS011;64447;52.140;5.602;2023-02-02T13:33:01;11.23;;;5.05;;
35592;SDS011;64447;52.140;5.602;2023-02-02T13:42:13;14.68;;;4.22;;
35592;SDS011;64447;52.140;5.602;2023-02-02T13:44:57;10.30;;;4.20;;
35592;SDS011;64447;52.140;5.602;2023-02-02T13:47:37;11.02;;;4.30;;
35592;SDS011;64447;52.140;5.602;2023-02-02T13:50:13;9.73;;;4.13;;
35592;SDS011;64447;52.140;5.602;2023-02-02T13:56:06;11.82;;;4.13;;
35592;SDS011;64447;52.140;5.602;2023-02-02T14:01:42;14.63;;;4.82;;
35592;SDS011;64447;52.140;5.602;2023-02-02T14:04:31;17.15;;;4.88;;
35592;SDS011;64447;52.140;5.602;2023-02-02T14:06:58;11.18;;;4.57;;
35592;SDS011;64447;52.140;5.602;2023-02-02T14:09:28;17.02;;;5.03;;
35592;SDS011;64447;52.140;5.602;2023-02-02T14:11:58;11.23;;;4.40;;
35592;SDS011;64447;52.140;5.602;2023-02-02T14:14:26;9.85;;;4.00;;
35592;SDS011;64447;52.140;5.602;2023-02-02T14:22:18;9.15;;;4.53;;
35592;SDS011;64447;52.140;5.602;2023-02-02T14:28:01;5.57;;;3.17;;
35592;SDS011;64447;52.140;5.602;2023-02-02T14:30:30;8.65;;;3.90;;
35592;SDS011;64447;52.140;5.602;2023-02-02T14:41:04;2.97;;;2.30;;
35592;SDS011;64447;52.140;5.602;2023-02-02T14:44:07;7.43;;;3.08;;
35592;SDS011;64447;52.140;5.602;2023-02-02T14:46:33;3.55;;;2.13;;
35592;SDS011;64447;52.140;5.602;2023-02-02T14:54:48;3.05;;;2.20;;
35592;SDS011;64447;52.140;5.602;2023-02-02T14:57:24;3.85;;;2.33;;
35592;SDS011;64447;52.140;5.602;2023-02-02T14:59:51;4.05;;;3.00;;
35592;SDS011;64447;52.140;5.602;2023-02-02T15:05:15;4.25;;;3.00;;
35592;SDS011;64447;52.140;5.602;2023-02-02T15:11:16;3.45;;;2.67;;
35592;SDS011;64447;52.140;5.602;2023-02-02T15:14:02;4.57;;;2.60;;
35592;SDS011;64447;52.140;5.602;2023-02-02T15:16:37;2.60;;;2.40;;
35592;SDS011;64447;52.140;5.602;2023-02-02T15:19:07;3.35;;;2.83;;
35592;SDS011;64447;52.140;5.602;2023-02-02T15:21:39;5.72;;;3.00;;
35592;SDS011;64447;52.140;5.602;2023-02-02T15:30:40;5.20;;;3.88;;
35592;SDS011;64447;52.140;5.602;2023-02-02T15:33:16;5.22;;;3.90;;
35592;SDS011;64447;52.140;5.602;2023-02-02T15:35:58;8.77;;;5.03;;
35592;SDS011;64447;52.140;5.602;2023-02-02T15:38:35;8.05;;;5.93;;
35592;SDS011;64447;52.140;5.602;2023-02-02T15:41:03;7.53;;;5.43;;
35592;SDS011;64447;52.140;5.602;2023-02-02T15:43:32;8.65;;;6.03;;
35592;SDS011;64447;52.140;5.602;2023-02-02T15:46:03;10.02;;;5.53;;
35592;SDS011;64447;52.140;5.602;2023-02-02T15:48:31;8.88;;;6.43;;
35592;SDS011;64447;52.140;5.602;2023-02-02T15:50:58;9.65;;;6.78;;
35592;SDS011;64447;52.140;5.602;2023-02-02T15:53:48;13.63;;;8.63;;
35592;SDS011;64447;52.140;5.602;2023-02-02T15:58:47;13.52;;;9.00;;
35592;SDS011;64447;52.140;5.602;2023-02-02T16:01:16;13.45;;;10.63;;
35592;SDS011;64447;52.140;5.602;2023-02-02T16:03:55;17.00;;;13.65;;
35592;SDS011;64447;52.140;5.602;2023-02-02T16:06:40;15.85;;;10.43;;
35592;SDS011;64447;52.140;5.602;2023-02-02T16:09:09;15.93;;;10.48;;
35592;SDS011;64447;52.140;5.602;2023-02-02T16:11:49;19.00;;;9.95;;
35592;SDS011;64447;52.140;5.602;2023-02-02T16:14:16;16.00;;;8.77;;
35592;SDS011;64447;52.140;5.602;2023-02-02T16:16:42;13.20;;;8.27;;
35592;SDS011;64447;52.140;5.602;2023-02-02T16:21:43;19.65;;;11.88;;
35592;SDS011;64447;52.140;5.602;2023-02-02T16:24:14;18.02;;;9.57;;
35592;SDS011;64447;52.140;5.602;2023-02-02T16:26:42;17.40;;;8.48;;
35592;SDS011;64447;52.140;5.602;2023-02-02T16:29:10;15.70;;;8.77;;
35592;SDS011;64447;52.140;5.602;2023-02-02T16:31:41;15.73;;;9.13;;
35592;SDS011;64447;52.140;5.602;2023-02-02T16:34:13;13.48;;;8.23;;
35592;SDS011;64447;52.140;5.602;2023-02-02T16:36:40;14.95;;;9.00;;
35592;SDS011;64447;52.140;5.602;2023-02-02T16:39:13;16.20;;;8.43;;
35592;SDS011;64447;52.140;5.602;2023-02-02T16:41:45;18.90;;;10.27;;
35592;SDS011;64447;52.140;5.602;2023-02-02T16:46:54;18.55;;;9.45;;
35592;SDS011;64447;52.140;5.602;2023-02-02T16:49:21;14.65;;;10.00;;
35592;SDS011;64447;52.140;5.602;2023-02-02T16:55:16;21.08;;;13.32;;
35592;SDS011;64447;52.140;5.602;2023-02-02T16:57:43;20.10;;;14.60;;
35592;SDS011;64447;52.140;5.602;2023-02-02T17:00:16;19.42;;;11.25;;
35592;SDS011;64447;52.140;5.602;2023-02-02T17:02:47;21.10;;;11.80;;
35592;SDS011;64447;52.140;5.602;2023-02-02T17:05:22;21.27;;;11.23;;
35592;SDS011;64447;52.140;5.602;2023-02-02T17:11:19;22.48;;;12.52;;
35592;SDS011;64447;52.140;5.602;2023-02-02T17:13:51;24.02;;;12.88;;
35592;SDS011;64447;52.140;5.602;2023-02-02T17:16:20;21.55;;;13.35;;
35592;SDS011;64447;52.140;5.602;2023-02-02T17:18:47;28.98;;;13.57;;
35592;SDS011;64447;52.140;5.602;2023-02-02T17:21:14;22.00;;;13.38;;
35592;SDS011;64447;52.140;5.602;2023-02-02T17:27:04;26.15;;;13.93;;
35592;SDS011;64447;52.140;5.602;2023-02-02T17:29:39;24.30;;;13.23;;
35592;SDS011;64447;52.140;5.602;2023-02-02T17:32:05;21.10;;;12.90;;
35592;SDS011;64447;52.140;5.602;2023-02-02T17:34:30;24.83;;;13.38;;
35592;SDS011;64447;52.140;5.602;2023-02-02T17:36:56;19.45;;;12.52;;
35592;SDS011;64447;52.140;5.602;2023-02-02T17:42:44;20.95;;;12.68;;
35592;SDS011;64447;52.140;5.602;2023-02-02T17:45:22;21.05;;;11.77;;
35592;SDS011;64447;52.140;5.602;2023-02-02T17:47:52;20.48;;;11.90;;
35592;SDS011;64447;52.140;5.602;2023-02-02T17:50:18;22.33;;;11.55;;
35592;SDS011;64447;52.140;5.602;2023-02-02T17:52:45;21.92;;;10.20;;
35592;SDS011;64447;52.140;5.602;2023-02-02T17:55:19;15.85;;;11.13;;
35592;SDS011;64447;52.140;5.602;2023-02-02T17:57:48;22.08;;;9.88;;
35592;SDS011;64447;52.140;5.602;2023-02-02T18:00:15;22.95;;;10.48;;
35592;SDS011;64447;52.140;5.602;2023-02-02T18:02:42;29.35;;;11.30;;
35592;SDS011;64447;52.140;5.602;2023-02-02T18:05:09;22.67;;;10.38;;
35592;SDS011;64447;52.140;5.602;2023-02-02T18:07:35;21.63;;;10.43;;
35592;SDS011;64447;52.140;5.602;2023-02-02T18:13:23;23.05;;;11.25;;
35592;SDS011;64447;52.140;5.602;2023-02-02T18:15:49;26.00;;;10.55;;
35592;SDS011;64447;52.140;5.602;2023-02-02T18:18:16;22.15;;;11.80;;
35592;SDS011;64447;52.140;5.602;2023-02-02T18:20:43;18.67;;;11.57;;
35592;SDS011;64447;52.140;5.602;2023-02-02T18:23:10;25.55;;;11.95;;
35592;SDS011;64447;52.140;5.602;2023-02-02T18:25:36;20.50;;;12.02;;
35592;SDS011;64447;52.140;5.602;2023-02-02T18:28:03;18.08;;;10.93;;
35592;SDS011;64447;52.140;5.602;2023-02-02T18:30:29;25.77;;;12.18;;
35592;SDS011;64447;52.140;5.602;2023-02-02T18:32:55;25.15;;;13.40;;
35592;SDS011;64447;52.140;5.602;2023-02-02T18:35:20;22.33;;;12.63;;
35592;SDS011;64447;52.140;5.602;2023-02-02T18:37:46;20.65;;;12.05;;
35592;SDS011;64447;52.140;5.602;2023-02-02T18:43:35;40.38;;;19.30;;
35592;SDS011;64447;52.140;5.602;2023-02-02T18:46:01;56.33;;;23.65;;
35592;SDS011;64447;52.140;5.602;2023-02-02T18:48:30;100.32;;;35.80;;
35592;SDS011;64447;52.140;5.602;2023-02-02T18:50:56;71.75;;;26.55;;
35592;SDS011;64447;52.140;5.602;2023-02-02T18:53:22;134.15;;;51.10;;
35592;SDS011;64447;52.140;5.602;2023-02-02T18:55:48;40.20;;;27.42;;
35592;SDS011;64447;52.140;5.602;2023-02-02T18:58:14;34.25;;;22.58;;